sensor_id;sensor_type;location;lat;lon;timestamp;P1;durP1;ratioP1;P2;durP2;ratioP2
10705;SDS011;5404;42.656;23.336;2023-11-19T00:02:08;7.35;;;3.22;;
10705;SDS011;5404;42.656;23.336;2023-11-19T00:04:37;6.00;;;3.10;;
10705;SDS011;5404;42.656;23.336;2023-11-19T00:07:06;5.82;;;3.65;;
10705;SDS011;5404;42.656;23.336;2023-11-19T00:09:33;5.03;;;3.15;;
10705;SDS011;5404;42.656;23.336;2023-11-19T00:11:59;5.43;;;3.85;;
10705;SDS011;5404;42.656;23.336;2023-11-19T00:14:25;6.20;;;3.28;;
10705;SDS011;5404;42.656;23.336;2023-11-19T00:16:54;3.78;;;3.33;;
10705;SDS011;5404;42.656;23.336;2023-11-19T00:19:19;3.22;;;2.92;;
10705;SDS011;5404;42.656;23.336;2023-11-19T00:21:45;5.00;;;3.50;;
10705;SDS011;5404;42.656;23.336;2023-11-19T00:24:12;3.72;;;3.08;;
10705;SDS011;5404;42.656;23.336;2023-11-19T00:26:38;3.75;;;3.40;;
10705;SDS011;5404;42.656;23.336;2023-11-19T00:29:03;4.30;;;3.08;;
10705;SDS011;5404;42.656;23.336;2023-11-19T00:31:29;4.18;;;2.92;;
10705;SDS011;5404;42.656;23.336;2023-11-19T00:33:54;4.20;;;3.40;;
10705;SDS011;5404;42.656;23.336;2023-11-19T00:36:20;6.80;;;3.80;;
10705;SDS011;5404;42.656;23.336;2023-11-19T00:38:46;4.13;;;3.22;;
10705;SDS011;5404;42.656;23.336;2023-11-19T00:41:11;4.57;;;3.25;;
10705;SDS011;5404;42.656;23.336;2023-11-19T00:43:37;4.38;;;2.55;;
10705;SDS011;5404;42.656;23.336;2023-11-19T00:46:02;9.77;;;3.92;;
10705;SDS011;5404;42.656;23.336;2023-11-19T00:48:28;4.55;;;3.90;;
10705;SDS011;5404;42.656;23.336;2023-11-19T00:50:53;5.07;;;3.83;;
10705;SDS011;5404;42.656;23.336;2023-11-19T00:53:19;4.60;;;3.03;;
10705;SDS011;5404;42.656;23.336;2023-11-19T00:55:44;5.82;;;3.45;;
10705;SDS011;5404;42.656;23.336;2023-11-19T00:58:10;5.18;;;3.75;;
10705;SDS011;5404;42.656;23.336;2023-11-19T01:00:35;4.57;;;3.55;;
10705;SDS011;5404;42.656;23.336;2023-11-19T01:03:00;4.05;;;3.50;;
10705;SDS011;5404;42.656;23.336;2023-11-19T01:05:26;4.05;;;3.65;;
10705;SDS011;5404;42.656;23.336;2023-11-19T01:07:53;3.45;;;2.67;;
10705;SDS011;5404;42.656;23.336;2023-11-19T01:10:19;5.13;;;3.50;;
10705;SDS011;5404;42.656;23.336;2023-11-19T01:12:45;4.90;;;3.70;;
10705;SDS011;5404;42.656;23.336;2023-11-19T01:15:11;3.78;;;3.25;;
10705;SDS011;5404;42.656;23.336;2023-11-19T01:17:39;5.68;;;3.80;;
10705;SDS011;5404;42.656;23.336;2023-11-19T01:20:05;5.32;;;3.00;;
10705;SDS011;5404;42.656;23.336;2023-11-19T01:22:31;5.05;;;3.80;;
10705;SDS011;5404;42.656;23.336;2023-11-19T01:24:57;4.82;;;3.45;;
10705;SDS011;5404;42.656;23.336;2023-11-19T01:27:23;4.80;;;3.47;;
10705;SDS011;5404;42.656;23.336;2023-11-19T01:29:49;4.18;;;3.50;;
10705;SDS011;5404;42.656;23.336;2023-11-19T01:32:15;5.25;;;3.30;;
10705;SDS011;5404;42.656;23.336;2023-11-19T01:34:40;4.28;;;3.10;;
10705;SDS011;5404;42.656;23.336;2023-11-19T01:37:06;4.68;;;3.63;;
10705;SDS011;5404;42.656;23.336;2023-11-19T01:39:34;3.25;;;2.83;;
10705;SDS011;5404;42.656;23.336;2023-11-19T01:41:59;3.95;;;3.20;;
10705;SDS011;5404;42.656;23.336;2023-11-19T01:44:25;4.82;;;3.47;;
10705;SDS011;5404;42.656;23.336;2023-11-19T01:46:50;4.38;;;3.63;;
10705;SDS011;5404;42.656;23.336;2023-11-19T01:49:17;3.90;;;3.38;;
10705;SDS011;5404;42.656;23.336;2023-11-19T01:51:43;3.63;;;3.28;;
10705;SDS011;5404;42.656;23.336;2023-11-19T01:54:09;4.80;;;3.47;;
10705;SDS011;5404;42.656;23.336;2023-11-19T01:56:35;3.67;;;3.10;;
10705;SDS011;5404;42.656;23.336;2023-11-19T01:59:05;4.70;;;3.30;;
10705;SDS011;5404;42.656;23.336;2023-11-19T02:01:33;3.60;;;2.65;;
10705;SDS011;5404;42.656;23.336;2023-11-19T02:04:03;4.65;;;3.35;;
10705;SDS011;5404;42.656;23.336;2023-11-19T02:06:29;3.88;;;2.92;;
10705;SDS011;5404;42.656;23.336;2023-11-19T02:08:57;3.70;;;2.72;;
10705;SDS011;5404;42.656;23.336;2023-11-19T02:11:22;4.88;;;2.85;;
10705;SDS011;5404;42.656;23.336;2023-11-19T02:13:48;3.45;;;3.00;;
10705;SDS011;5404;42.656;23.336;2023-11-19T02:16:13;4.45;;;3.20;;
10705;SDS011;5404;42.656;23.336;2023-11-19T02:18:39;5.65;;;3.22;;
10705;SDS011;5404;42.656;23.336;2023-11-19T02:21:04;3.85;;;2.85;;
10705;SDS011;5404;42.656;23.336;2023-11-19T02:23:30;4.15;;;3.35;;
10705;SDS011;5404;42.656;23.336;2023-11-19T02:28:27;5.30;;;3.45;;
10705;SDS011;5404;42.656;23.336;2023-11-19T02:30:53;2.97;;;2.67;;
10705;SDS011;5404;42.656;23.336;2023-11-19T02:33:18;3.45;;;3.15;;
10705;SDS011;5404;42.656;23.336;2023-11-19T02:35:44;3.30;;;2.75;;
10705;SDS011;5404;42.656;23.336;2023-11-19T02:38:09;7.30;;;3.00;;
10705;SDS011;5404;42.656;23.336;2023-11-19T02:40:36;4.28;;;3.08;;
10705;SDS011;5404;42.656;23.336;2023-11-19T02:43:01;4.38;;;2.70;;
10705;SDS011;5404;42.656;23.336;2023-11-19T02:45:29;4.15;;;3.20;;
10705;SDS011;5404;42.656;23.336;2023-11-19T02:47:56;3.47;;;3.17;;
10705;SDS011;5404;42.656;23.336;2023-11-19T02:50:21;5.82;;;3.03;;
10705;SDS011;5404;42.656;23.336;2023-11-19T02:52:52;3.50;;;2.75;;
10705;SDS011;5404;42.656;23.336;2023-11-19T02:55:18;4.22;;;3.08;;
10705;SDS011;5404;42.656;23.336;2023-11-19T02:57:44;4.95;;;3.40;;
10705;SDS011;5404;42.656;23.336;2023-11-19T03:00:16;4.78;;;3.55;;
10705;SDS011;5404;42.656;23.336;2023-11-19T03:02:43;4.78;;;2.60;;
10705;SDS011;5404;42.656;23.336;2023-11-19T03:05:12;3.78;;;3.05;;
10705;SDS011;5404;42.656;23.336;2023-11-19T03:07:39;3.75;;;3.33;;
10705;SDS011;5404;42.656;23.336;2023-11-19T03:10:08;3.20;;;2.90;;
10705;SDS011;5404;42.656;23.336;2023-11-19T03:12:37;3.35;;;2.70;;
10705;SDS011;5404;42.656;23.336;2023-11-19T03:15:03;2.38;;;2.08;;
10705;SDS011;5404;42.656;23.336;2023-11-19T03:17:29;5.07;;;3.08;;
10705;SDS011;5404;42.656;23.336;2023-11-19T03:19:54;4.28;;;2.95;;
10705;SDS011;5404;42.656;23.336;2023-11-19T03:22:20;3.33;;;3.00;;
10705;SDS011;5404;42.656;23.336;2023-11-19T03:24:46;3.90;;;2.75;;
10705;SDS011;5404;42.656;23.336;2023-11-19T03:27:11;11.57;;;3.78;;
10705;SDS011;5404;42.656;23.336;2023-11-19T03:29:37;3.72;;;2.92;;
10705;SDS011;5404;42.656;23.336;2023-11-19T03:32:03;3.63;;;3.17;;
10705;SDS011;5404;42.656;23.336;2023-11-19T03:34:29;5.15;;;3.47;;
10705;SDS011;5404;42.656;23.336;2023-11-19T03:36:55;4.30;;;3.25;;
10705;SDS011;5404;42.656;23.336;2023-11-19T03:39:22;8.27;;;3.28;;
10705;SDS011;5404;42.656;23.336;2023-11-19T03:41:49;6.55;;;3.65;;
10705;SDS011;5404;42.656;23.336;2023-11-19T03:44:15;6.07;;;3.35;;
10705;SDS011;5404;42.656;23.336;2023-11-19T03:46:41;3.13;;;2.80;;
10705;SDS011;5404;42.656;23.336;2023-11-19T03:49:07;5.07;;;2.85;;
10705;SDS011;5404;42.656;23.336;2023-11-19T03:51:32;4.90;;;3.40;;
10705;SDS011;5404;42.656;23.336;2023-11-19T03:53:59;4.57;;;3.38;;
10705;SDS011;5404;42.656;23.336;2023-11-19T03:56:25;3.83;;;3.00;;
10705;SDS011;5404;42.656;23.336;2023-11-19T03:58:52;5.28;;;3.35;;
10705;SDS011;5404;42.656;23.336;2023-11-19T04:01:18;3.80;;;2.97;;
10705;SDS011;5404;42.656;23.336;2023-11-19T04:03:43;6.63;;;3.63;;
10705;SDS011;5404;42.656;23.336;2023-11-19T04:06:09;6.65;;;3.90;;
10705;SDS011;5404;42.656;23.336;2023-11-19T04:08:34;3.95;;;3.00;;
10705;SDS011;5404;42.656;23.336;2023-11-19T04:11:01;5.00;;;3.40;;
10705;SDS011;5404;42.656;23.336;2023-11-19T04:13:28;5.47;;;3.70;;
10705;SDS011;5404;42.656;23.336;2023-11-19T04:15:53;6.78;;;3.78;;
10705;SDS011;5404;42.656;23.336;2023-11-19T04:18:20;4.30;;;3.17;;
10705;SDS011;5404;42.656;23.336;2023-11-19T04:20:45;3.83;;;3.42;;
10705;SDS011;5404;42.656;23.336;2023-11-19T04:23:11;7.85;;;3.50;;
10705;SDS011;5404;42.656;23.336;2023-11-19T04:25:36;4.13;;;3.15;;
10705;SDS011;5404;42.656;23.336;2023-11-19T04:28:02;4.40;;;3.53;;
10705;SDS011;5404;42.656;23.336;2023-11-19T04:30:28;4.38;;;2.75;;
10705;SDS011;5404;42.656;23.336;2023-11-19T04:32:53;4.28;;;3.22;;
10705;SDS011;5404;42.656;23.336;2023-11-19T04:35:19;4.82;;;3.20;;
10705;SDS011;5404;42.656;23.336;2023-11-19T04:37:44;5.88;;;3.38;;
10705;SDS011;5404;42.656;23.336;2023-11-19T04:40:10;6.60;;;3.63;;
10705;SDS011;5404;42.656;23.336;2023-11-19T04:42:37;4.15;;;2.83;;
10705;SDS011;5404;42.656;23.336;2023-11-19T04:45:05;3.53;;;3.10;;
10705;SDS011;5404;42.656;23.336;2023-11-19T04:47:32;3.75;;;3.38;;
10705;SDS011;5404;42.656;23.336;2023-11-19T04:49:58;5.05;;;3.53;;
10705;SDS011;5404;42.656;23.336;2023-11-19T04:52:24;5.18;;;3.72;;
10705;SDS011;5404;42.656;23.336;2023-11-19T04:54:49;4.22;;;3.25;;
10705;SDS011;5404;42.656;23.336;2023-11-19T04:57:14;3.75;;;3.22;;
10705;SDS011;5404;42.656;23.336;2023-11-19T04:59:40;5.68;;;3.38;;
10705;SDS011;5404;42.656;23.336;2023-11-19T05:02:06;5.60;;;3.67;;
10705;SDS011;5404;42.656;23.336;2023-11-19T05:04:33;4.93;;;3.25;;
10705;SDS011;5404;42.656;23.336;2023-11-19T05:06:58;4.35;;;3.45;;
10705;SDS011;5404;42.656;23.336;2023-11-19T05:09:24;3.67;;;3.13;;
10705;SDS011;5404;42.656;23.336;2023-11-19T05:11:49;5.25;;;3.40;;
10705;SDS011;5404;42.656;23.336;2023-11-19T05:14:15;4.28;;;3.03;;
10705;SDS011;5404;42.656;23.336;2023-11-19T05:16:41;4.97;;;3.67;;
10705;SDS011;5404;42.656;23.336;2023-11-19T05:19:07;5.65;;;3.65;;
10705;SDS011;5404;42.656;23.336;2023-11-19T05:21:34;4.70;;;3.05;;
10705;SDS011;5404;42.656;23.336;2023-11-19T05:24:01;4.13;;;2.88;;
10705;SDS011;5404;42.656;23.336;2023-11-19T05:26:29;4.13;;;3.72;;
10705;SDS011;5404;42.656;23.336;2023-11-19T05:28:55;2.97;;;2.67;;
10705;SDS011;5404;42.656;23.336;2023-11-19T05:31:21;6.38;;;3.53;;
10705;SDS011;5404;42.656;23.336;2023-11-19T05:33:46;4.75;;;2.83;;
10705;SDS011;5404;42.656;23.336;2023-11-19T05:36:12;4.50;;;3.25;;
10705;SDS011;5404;42.656;23.336;2023-11-19T05:38:37;8.65;;;4.55;;
10705;SDS011;5404;42.656;23.336;2023-11-19T05:41:03;7.97;;;4.00;;
10705;SDS011;5404;42.656;23.336;2023-11-19T05:43:30;5.78;;;3.42;;
10705;SDS011;5404;42.656;23.336;2023-11-19T05:45:56;4.75;;;3.40;;
10705;SDS011;5404;42.656;23.336;2023-11-19T05:48:21;8.68;;;4.97;;
10705;SDS011;5404;42.656;23.336;2023-11-19T05:50:47;13.00;;;4.90;;
10705;SDS011;5404;42.656;23.336;2023-11-19T05:53:14;7.30;;;3.58;;
10705;SDS011;5404;42.656;23.336;2023-11-19T05:55:40;5.72;;;3.20;;
10705;SDS011;5404;42.656;23.336;2023-11-19T05:58:13;5.50;;;3.40;;
10705;SDS011;5404;42.656;23.336;2023-11-19T06:00:39;7.72;;;4.45;;
10705;SDS011;5404;42.656;23.336;2023-11-19T06:03:05;5.82;;;3.58;;
10705;SDS011;5404;42.656;23.336;2023-11-19T06:05:34;5.18;;;3.78;;
10705;SDS011;5404;42.656;23.336;2023-11-19T06:07:59;7.30;;;2.83;;
10705;SDS011;5404;42.656;23.336;2023-11-19T06:10:25;6.28;;;3.80;;
10705;SDS011;5404;42.656;23.336;2023-11-19T06:12:59;5.88;;;4.28;;
10705;SDS011;5404;42.656;23.336;2023-11-19T06:15:25;5.20;;;3.58;;
10705;SDS011;5404;42.656;23.336;2023-11-19T06:17:52;8.23;;;4.35;;
10705;SDS011;5404;42.656;23.336;2023-11-19T06:20:17;5.47;;;3.53;;
10705;SDS011;5404;42.656;23.336;2023-11-19T06:22:44;7.32;;;4.45;;
10705;SDS011;5404;42.656;23.336;2023-11-19T06:25:12;5.75;;;4.38;;
10705;SDS011;5404;42.656;23.336;2023-11-19T06:27:40;6.80;;;4.78;;
10705;SDS011;5404;42.656;23.336;2023-11-19T06:30:06;6.53;;;4.50;;
10705;SDS011;5404;42.656;23.336;2023-11-19T06:32:32;8.05;;;5.28;;
10705;SDS011;5404;42.656;23.336;2023-11-19T06:34:57;6.75;;;3.83;;
10705;SDS011;5404;42.656;23.336;2023-11-19T06:37:23;5.80;;;4.32;;
10705;SDS011;5404;42.656;23.336;2023-11-19T06:39:50;9.13;;;4.35;;
10705;SDS011;5404;42.656;23.336;2023-11-19T06:42:15;5.72;;;3.72;;
10705;SDS011;5404;42.656;23.336;2023-11-19T06:44:43;4.72;;;3.80;;
10705;SDS011;5404;42.656;23.336;2023-11-19T06:47:10;7.60;;;4.00;;
10705;SDS011;5404;42.656;23.336;2023-11-19T06:49:35;6.32;;;3.75;;
10705;SDS011;5404;42.656;23.336;2023-11-19T06:52:01;5.95;;;4.00;;
10705;SDS011;5404;42.656;23.336;2023-11-19T06:54:26;5.40;;;3.88;;
10705;SDS011;5404;42.656;23.336;2023-11-19T06:56:52;6.30;;;4.35;;
10705;SDS011;5404;42.656;23.336;2023-11-19T06:59:17;8.43;;;4.05;;
10705;SDS011;5404;42.656;23.336;2023-11-19T07:01:43;6.05;;;3.88;;
10705;SDS011;5404;42.656;23.336;2023-11-19T07:04:11;4.03;;;3.38;;
10705;SDS011;5404;42.656;23.336;2023-11-19T07:09:02;5.20;;;3.80;;
10705;SDS011;5404;42.656;23.336;2023-11-19T07:11:37;6.07;;;3.97;;
10705;SDS011;5404;42.656;23.336;2023-11-19T07:14:04;5.40;;;3.33;;
10705;SDS011;5404;42.656;23.336;2023-11-19T07:16:31;5.65;;;3.83;;
10705;SDS011;5404;42.656;23.336;2023-11-19T07:18:57;5.30;;;4.05;;
10705;SDS011;5404;42.656;23.336;2023-11-19T07:21:23;5.57;;;3.90;;
10705;SDS011;5404;42.656;23.336;2023-11-19T07:23:49;7.28;;;4.35;;
10705;SDS011;5404;42.656;23.336;2023-11-19T07:26:16;3.67;;;3.15;;
10705;SDS011;5404;42.656;23.336;2023-11-19T07:28:42;5.95;;;4.43;;
10705;SDS011;5404;42.656;23.336;2023-11-19T07:31:10;8.13;;;3.92;;
10705;SDS011;5404;42.656;23.336;2023-11-19T07:33:36;7.32;;;4.25;;
10705;SDS011;5404;42.656;23.336;2023-11-19T07:36:02;18.95;;;4.22;;
10705;SDS011;5404;42.656;23.336;2023-11-19T07:38:27;6.15;;;3.80;;
10705;SDS011;5404;42.656;23.336;2023-11-19T07:40:53;6.63;;;3.80;;
10705;SDS011;5404;42.656;23.336;2023-11-19T07:43:19;7.38;;;3.80;;
10705;SDS011;5404;42.656;23.336;2023-11-19T07:45:44;6.82;;;4.57;;
10705;SDS011;5404;42.656;23.336;2023-11-19T07:48:10;7.93;;;4.63;;
10705;SDS011;5404;42.656;23.336;2023-11-19T07:50:38;6.53;;;4.18;;
10705;SDS011;5404;42.656;23.336;2023-11-19T07:53:06;4.28;;;3.45;;
10705;SDS011;5404;42.656;23.336;2023-11-19T07:55:32;4.75;;;3.95;;
10705;SDS011;5404;42.656;23.336;2023-11-19T07:57:58;6.45;;;4.00;;
10705;SDS011;5404;42.656;23.336;2023-11-19T08:00:23;4.45;;;3.17;;
10705;SDS011;5404;42.656;23.336;2023-11-19T08:02:49;8.63;;;4.45;;
10705;SDS011;5404;42.656;23.336;2023-11-19T08:05:14;8.32;;;4.05;;
10705;SDS011;5404;42.656;23.336;2023-11-19T08:07:39;5.90;;;4.05;;
10705;SDS011;5404;42.656;23.336;2023-11-19T08:10:05;5.60;;;4.22;;
10705;SDS011;5404;42.656;23.336;2023-11-19T08:12:34;6.05;;;4.50;;
10705;SDS011;5404;42.656;23.336;2023-11-19T08:15:01;8.00;;;4.28;;
10705;SDS011;5404;42.656;23.336;2023-11-19T08:17:27;6.53;;;3.88;;
10705;SDS011;5404;42.656;23.336;2023-11-19T08:19:53;6.97;;;4.57;;
10705;SDS011;5404;42.656;23.336;2023-11-19T08:22:18;7.20;;;4.68;;
10705;SDS011;5404;42.656;23.336;2023-11-19T08:24:43;5.35;;;3.55;;
10705;SDS011;5404;42.656;23.336;2023-11-19T08:27:09;5.15;;;4.13;;
10705;SDS011;5404;42.656;23.336;2023-11-19T08:29:36;6.60;;;4.82;;
10705;SDS011;5404;42.656;23.336;2023-11-19T08:32:01;6.68;;;4.28;;
10705;SDS011;5404;42.656;23.336;2023-11-19T08:34:28;6.75;;;4.28;;
10705;SDS011;5404;42.656;23.336;2023-11-19T08:36:54;6.28;;;4.18;;
10705;SDS011;5404;42.656;23.336;2023-11-19T08:39:19;8.73;;;4.57;;
10705;SDS011;5404;42.656;23.336;2023-11-19T08:41:46;7.65;;;5.18;;
10705;SDS011;5404;42.656;23.336;2023-11-19T08:44:13;7.60;;;5.68;;
10705;SDS011;5404;42.656;23.336;2023-11-19T08:46:45;5.70;;;4.03;;
10705;SDS011;5404;42.656;23.336;2023-11-19T08:49:12;7.93;;;4.35;;
10705;SDS011;5404;42.656;23.336;2023-11-19T08:51:38;5.72;;;4.28;;
10705;SDS011;5404;42.656;23.336;2023-11-19T08:54:03;5.35;;;4.18;;
10705;SDS011;5404;42.656;23.336;2023-11-19T08:56:29;6.10;;;4.07;;
10705;SDS011;5404;42.656;23.336;2023-11-19T08:58:57;6.15;;;3.67;;
10705;SDS011;5404;42.656;23.336;2023-11-19T09:01:23;6.32;;;4.38;;
10705;SDS011;5404;42.656;23.336;2023-11-19T09:03:49;6.15;;;3.67;;
10705;SDS011;5404;42.656;23.336;2023-11-19T09:06:15;8.05;;;3.90;;
10705;SDS011;5404;42.656;23.336;2023-11-19T09:08:41;4.20;;;3.30;;
10705;SDS011;5404;42.656;23.336;2023-11-19T09:11:07;7.35;;;3.75;;
10705;SDS011;5404;42.656;23.336;2023-11-19T09:13:34;6.45;;;3.95;;
10705;SDS011;5404;42.656;23.336;2023-11-19T09:16:00;6.32;;;3.90;;
10705;SDS011;5404;42.656;23.336;2023-11-19T09:18:29;5.78;;;3.90;;
10705;SDS011;5404;42.656;23.336;2023-11-19T09:20:54;5.40;;;4.13;;
10705;SDS011;5404;42.656;23.336;2023-11-19T09:23:20;11.35;;;4.40;;
10705;SDS011;5404;42.656;23.336;2023-11-19T09:25:45;6.43;;;3.67;;
10705;SDS011;5404;42.656;23.336;2023-11-19T09:28:11;6.90;;;4.75;;
10705;SDS011;5404;42.656;23.336;2023-11-19T09:30:38;6.25;;;4.60;;
10705;SDS011;5404;42.656;23.336;2023-11-19T09:33:03;10.10;;;3.55;;
10705;SDS011;5404;42.656;23.336;2023-11-19T09:35:29;7.75;;;4.22;;
10705;SDS011;5404;42.656;23.336;2023-11-19T09:37:54;6.50;;;4.03;;
10705;SDS011;5404;42.656;23.336;2023-11-19T09:40:19;6.25;;;3.80;;
10705;SDS011;5404;42.656;23.336;2023-11-19T09:42:45;6.82;;;4.30;;
10705;SDS011;5404;42.656;23.336;2023-11-19T09:45:15;6.20;;;3.22;;
10705;SDS011;5404;42.656;23.336;2023-11-19T09:47:45;4.57;;;3.45;;
10705;SDS011;5404;42.656;23.336;2023-11-19T09:50:20;6.63;;;4.78;;
10705;SDS011;5404;42.656;23.336;2023-11-19T09:52:46;5.60;;;3.95;;
10705;SDS011;5404;42.656;23.336;2023-11-19T09:55:12;5.57;;;4.00;;
10705;SDS011;5404;42.656;23.336;2023-11-19T09:57:38;6.50;;;4.22;;
10705;SDS011;5404;42.656;23.336;2023-11-19T10:00:06;6.53;;;4.38;;
10705;SDS011;5404;42.656;23.336;2023-11-19T10:02:33;6.63;;;4.13;;
10705;SDS011;5404;42.656;23.336;2023-11-19T10:05:01;4.50;;;3.63;;
10705;SDS011;5404;42.656;23.336;2023-11-19T10:07:32;4.78;;;3.60;;
10705;SDS011;5404;42.656;23.336;2023-11-19T10:10:04;5.15;;;3.80;;
10705;SDS011;5404;42.656;23.336;2023-11-19T10:12:30;4.15;;;3.20;;
10705;SDS011;5404;42.656;23.336;2023-11-19T10:14:58;4.30;;;3.35;;
10705;SDS011;5404;42.656;23.336;2023-11-19T10:17:27;3.60;;;2.50;;
10705;SDS011;5404;42.656;23.336;2023-11-19T10:19:56;4.93;;;3.00;;
10705;SDS011;5404;42.656;23.336;2023-11-19T10:22:23;3.38;;;3.08;;
10705;SDS011;5404;42.656;23.336;2023-11-19T10:24:49;5.07;;;3.25;;
10705;SDS011;5404;42.656;23.336;2023-11-19T10:27:15;4.18;;;3.13;;
10705;SDS011;5404;42.656;23.336;2023-11-19T10:29:43;3.63;;;2.65;;
10705;SDS011;5404;42.656;23.336;2023-11-19T10:32:10;5.13;;;3.20;;
10705;SDS011;5404;42.656;23.336;2023-11-19T10:34:38;7.97;;;4.60;;
10705;SDS011;5404;42.656;23.336;2023-11-19T10:37:04;4.55;;;3.22;;
10705;SDS011;5404;42.656;23.336;2023-11-19T10:39:51;4.82;;;3.05;;
10705;SDS011;5404;42.656;23.336;2023-11-19T10:42:19;8.35;;;4.32;;
10705;SDS011;5404;42.656;23.336;2023-11-19T10:44:45;3.88;;;2.70;;
10705;SDS011;5404;42.656;23.336;2023-11-19T10:47:10;10.13;;;3.55;;
10705;SDS011;5404;42.656;23.336;2023-11-19T10:49:38;4.57;;;2.42;;
10705;SDS011;5404;42.656;23.336;2023-11-19T10:52:05;5.03;;;3.15;;
10705;SDS011;5404;42.656;23.336;2023-11-19T10:54:31;5.60;;;3.53;;
10705;SDS011;5404;42.656;23.336;2023-11-19T10:57:01;3.42;;;2.83;;
10705;SDS011;5404;42.656;23.336;2023-11-19T10:59:29;3.25;;;2.95;;
10705;SDS011;5404;42.656;23.336;2023-11-19T11:01:57;4.53;;;3.30;;
10705;SDS011;5404;42.656;23.336;2023-11-19T11:04:23;4.63;;;2.95;;
10705;SDS011;5404;42.656;23.336;2023-11-19T11:06:51;3.00;;;2.60;;
10705;SDS011;5404;42.656;23.336;2023-11-19T11:09:16;2.80;;;2.50;;
10705;SDS011;5404;42.656;23.336;2023-11-19T11:11:45;3.47;;;3.00;;
10705;SDS011;5404;42.656;23.336;2023-11-19T11:14:12;3.00;;;2.40;;
10705;SDS011;5404;42.656;23.336;2023-11-19T11:16:43;5.10;;;3.13;;
10705;SDS011;5404;42.656;23.336;2023-11-19T11:19:09;6.13;;;2.88;;
10705;SDS011;5404;42.656;23.336;2023-11-19T11:21:37;3.35;;;2.70;;
10705;SDS011;5404;42.656;23.336;2023-11-19T11:26:57;3.58;;;2.83;;
10705;SDS011;5404;42.656;23.336;2023-11-19T11:35:02;3.92;;;2.67;;
10705;SDS011;5404;42.656;23.336;2023-11-19T11:37:44;5.60;;;2.75;;
10705;SDS011;5404;42.656;23.336;2023-11-19T11:40:15;2.90;;;2.60;;
10705;SDS011;5404;42.656;23.336;2023-11-19T11:42:43;3.00;;;2.70;;
10705;SDS011;5404;42.656;23.336;2023-11-19T11:45:14;7.75;;;3.15;;
10705;SDS011;5404;42.656;23.336;2023-11-19T11:52:34;5.90;;;3.10;;
10705;SDS011;5404;42.656;23.336;2023-11-19T11:55:25;6.13;;;2.90;;
10705;SDS011;5404;42.656;23.336;2023-11-19T11:57:50;3.85;;;3.28;;
10705;SDS011;5404;42.656;23.336;2023-11-19T12:03:05;5.03;;;3.03;;
10705;SDS011;5404;42.656;23.336;2023-11-19T12:05:32;8.93;;;3.28;;
10705;SDS011;5404;42.656;23.336;2023-11-19T12:08:05;7.57;;;4.25;;
10705;SDS011;5404;42.656;23.336;2023-11-19T12:10:53;4.82;;;3.42;;
10705;SDS011;5404;42.656;23.336;2023-11-19T12:13:19;5.75;;;3.50;;
10705;SDS011;5404;42.656;23.336;2023-11-19T12:18:32;9.27;;;4.35;;
10705;SDS011;5404;42.656;23.336;2023-11-19T12:20:58;4.28;;;3.00;;
10705;SDS011;5404;42.656;23.336;2023-11-19T12:23:28;8.65;;;3.65;;
10705;SDS011;5404;42.656;23.336;2023-11-19T12:28:20;8.80;;;3.45;;
10705;SDS011;5404;42.656;23.336;2023-11-19T12:30:46;5.72;;;3.80;;
10705;SDS011;5404;42.656;23.336;2023-11-19T12:33:13;9.25;;;3.97;;
10705;SDS011;5404;42.656;23.336;2023-11-19T12:35:42;12.80;;;5.30;;
10705;SDS011;5404;42.656;23.336;2023-11-19T12:38:21;9.82;;;4.55;;
10705;SDS011;5404;42.656;23.336;2023-11-19T12:41:02;12.45;;;5.30;;
10705;SDS011;5404;42.656;23.336;2023-11-19T12:43:28;8.32;;;3.83;;
10705;SDS011;5404;42.656;23.336;2023-11-19T12:45:53;7.70;;;4.53;;
10705;SDS011;5404;42.656;23.336;2023-11-19T12:48:20;6.78;;;4.32;;
10705;SDS011;5404;42.656;23.336;2023-11-19T12:50:52;6.20;;;4.20;;
10705;SDS011;5404;42.656;23.336;2023-11-19T12:53:18;4.70;;;3.78;;
10705;SDS011;5404;42.656;23.336;2023-11-19T12:55:44;11.13;;;4.28;;
10705;SDS011;5404;42.656;23.336;2023-11-19T12:58:09;7.43;;;3.95;;
10705;SDS011;5404;42.656;23.336;2023-11-19T13:00:35;12.95;;;5.47;;
10705;SDS011;5404;42.656;23.336;2023-11-19T13:03:00;12.75;;;5.80;;
10705;SDS011;5404;42.656;23.336;2023-11-19T13:05:30;15.90;;;5.70;;
10705;SDS011;5404;42.656;23.336;2023-11-19T13:08:04;17.15;;;6.28;;
10705;SDS011;5404;42.656;23.336;2023-11-19T13:10:31;11.95;;;5.22;;
10705;SDS011;5404;42.656;23.336;2023-11-19T13:13:18;10.65;;;4.88;;
10705;SDS011;5404;42.656;23.336;2023-11-19T13:15:44;9.85;;;4.82;;
10705;SDS011;5404;42.656;23.336;2023-11-19T13:18:10;8.55;;;4.18;;
10705;SDS011;5404;42.656;23.336;2023-11-19T13:20:36;14.05;;;5.20;;
10705;SDS011;5404;42.656;23.336;2023-11-19T13:23:02;29.92;;;7.38;;
10705;SDS011;5404;42.656;23.336;2023-11-19T13:25:29;13.73;;;5.20;;
10705;SDS011;5404;42.656;23.336;2023-11-19T13:27:59;13.00;;;5.38;;
10705;SDS011;5404;42.656;23.336;2023-11-19T13:30:25;11.60;;;6.35;;
10705;SDS011;5404;42.656;23.336;2023-11-19T13:32:51;8.57;;;4.28;;
10705;SDS011;5404;42.656;23.336;2023-11-19T13:35:17;7.72;;;4.80;;
10705;SDS011;5404;42.656;23.336;2023-11-19T13:37:44;7.35;;;4.13;;
10705;SDS011;5404;42.656;23.336;2023-11-19T13:40:10;14.90;;;6.43;;
10705;SDS011;5404;42.656;23.336;2023-11-19T13:45:07;13.88;;;5.70;;
10705;SDS011;5404;42.656;23.336;2023-11-19T13:47:40;6.35;;;3.70;;
10705;SDS011;5404;42.656;23.336;2023-11-19T13:50:12;3.38;;;2.65;;
10705;SDS011;5404;42.656;23.336;2023-11-19T13:52:41;8.02;;;4.45;;
10705;SDS011;5404;42.656;23.336;2023-11-19T13:55:08;6.70;;;4.55;;
10705;SDS011;5404;42.656;23.336;2023-11-19T13:57:35;11.15;;;5.10;;
10705;SDS011;5404;42.656;23.336;2023-11-19T14:00:04;6.45;;;4.95;;
10705;SDS011;5404;42.656;23.336;2023-11-19T14:02:34;6.65;;;3.90;;
10705;SDS011;5404;42.656;23.336;2023-11-19T14:05:01;6.15;;;3.85;;
10705;SDS011;5404;42.656;23.336;2023-11-19T14:07:27;7.22;;;4.50;;
10705;SDS011;5404;42.656;23.336;2023-11-19T14:09:53;6.00;;;3.78;;
10705;SDS011;5404;42.656;23.336;2023-11-19T14:12:19;5.47;;;3.60;;
10705;SDS011;5404;42.656;23.336;2023-11-19T14:14:44;6.43;;;3.70;;
10705;SDS011;5404;42.656;23.336;2023-11-19T14:17:10;19.15;;;5.70;;
10705;SDS011;5404;42.656;23.336;2023-11-19T14:19:36;17.80;;;5.75;;
10705;SDS011;5404;42.656;23.336;2023-11-19T14:22:01;8.07;;;4.03;;
10705;SDS011;5404;42.656;23.336;2023-11-19T14:24:27;12.02;;;4.65;;
10705;SDS011;5404;42.656;23.336;2023-11-19T14:26:53;5.38;;;4.03;;
10705;SDS011;5404;42.656;23.336;2023-11-19T14:29:18;7.30;;;4.20;;
10705;SDS011;5404;42.656;23.336;2023-11-19T14:31:44;9.18;;;4.88;;
10705;SDS011;5404;42.656;23.336;2023-11-19T14:34:09;11.25;;;5.47;;
10705;SDS011;5404;42.656;23.336;2023-11-19T14:36:34;11.70;;;6.18;;
10705;SDS011;5404;42.656;23.336;2023-11-19T14:39:00;11.32;;;4.60;;
10705;SDS011;5404;42.656;23.336;2023-11-19T14:41:26;11.63;;;5.57;;
10705;SDS011;5404;42.656;23.336;2023-11-19T14:43:51;13.70;;;5.72;;
10705;SDS011;5404;42.656;23.336;2023-11-19T14:46:17;14.43;;;6.68;;
10705;SDS011;5404;42.656;23.336;2023-11-19T14:48:43;16.60;;;6.68;;
10705;SDS011;5404;42.656;23.336;2023-11-19T14:51:08;9.93;;;5.10;;
10705;SDS011;5404;42.656;23.336;2023-11-19T14:53:34;17.25;;;6.75;;
10705;SDS011;5404;42.656;23.336;2023-11-19T14:55:59;8.85;;;5.03;;
10705;SDS011;5404;42.656;23.336;2023-11-19T14:58:25;10.40;;;5.60;;
10705;SDS011;5404;42.656;23.336;2023-11-19T15:00:52;7.32;;;4.97;;
10705;SDS011;5404;42.656;23.336;2023-11-19T15:03:18;12.40;;;5.25;;
10705;SDS011;5404;42.656;23.336;2023-11-19T15:05:44;15.98;;;6.40;;
10705;SDS011;5404;42.656;23.336;2023-11-19T15:08:13;14.75;;;5.95;;
10705;SDS011;5404;42.656;23.336;2023-11-19T15:10:41;18.30;;;6.70;;
10705;SDS011;5404;42.656;23.336;2023-11-19T15:13:07;19.42;;;7.22;;